Terminal Aerodrome Forecast
Issued by NWS

Current Version | Previous Version | Graphics & Text | Print | Product List | Glossary On
Versions: 1 2 3 4 5 6 7 8 9 10 11 12 13 14 15 16 17 18 19
000
FTUS41 KRNK 261020 AAA
TAFLWB
TAF AMD
KLWB 261020Z 2610/2706 00000KT 5SM BR OVC014
     FM261500 19005KT 6SM HZ OVC015
     FM261900 21006KT P6SM VCSH BKN025 OVC050
     FM262200 24005KT 5SM TSRA OVC025CB
     FM270100 26004KT 3SM SHRA BR OVC015=

USA.gov is the U.S. government's official web portal to all federal, state and local government web resources and services.